• Join FlightAware (Why Join?)
  • Login
  • US Flag 
Rudolph Flight #1: Arrived! 
12:14PM EST


 

Airport Tracker/Info


-or-


 

Live Flight TrackerFlight Track Log ✈ TAM3210 ✈ 08-May-2013 ✈ SBSP / CGH - SBCF / CNF

Flight Track Log - Related Links

Times and Time Zones

All times are in EDT time to prevent confusion due to time zone crossing. See the TAM3210 flight status page for this flight to view local times or setup timezone preferences in your user account.

Time Position Orientation Groundspeed Altitude Reporting Facility
EDT Latitude Longitude Course Direction KTS MPH feet Rate Location/Type
06:38AM -22.9926 -46.2165 33° Northeast  Level Estimated
06:39AM -22.9349 -46.1768 32° Northeast  Level Estimated
06:40AM -22.8771 -46.1371 32° Northeast  Level Estimated
06:41AM -22.8194 -46.0975 32° Northeast  Level Estimated
06:42AM -22.7617 -46.0579 32° Northeast  Level Estimated
06:43AM -22.7039 -46.0183 32° Northeast  Level Estimated
06:44AM -22.6462 -45.9788 32° Northeast  Level Estimated
06:45AM -22.5884 -45.9393 32° Northeast  Level Estimated
06:46AM -22.5306 -45.8999 32° Northeast  Level Estimated
06:47AM -22.4728 -45.8604 32° Northeast  Level Estimated
06:48AM -22.4150 -45.8210 32° Northeast  Level Estimated
06:49AM -22.3572 -45.7817 32° Northeast  Level Estimated
06:50AM -22.2994 -45.7424 32° Northeast  Level Estimated
06:51AM -22.2416 -45.7031 32° Northeast  Level Estimated
06:52AM -22.1838 -45.6638 32° Northeast  Level Estimated
06:53AM -22.1259 -45.6246 32° Northeast  Level Estimated
06:54AM -22.0681 -45.5854 32° Northeast  Level Estimated
06:55AM -22.0102 -45.5462 32° Northeast  Level Estimated
06:56AM -21.9524 -45.5071 32° Northeast  Level Estimated
06:57AM -21.8945 -45.4680 32° Northeast  Level Estimated
06:58AM -21.8366 -45.4289 32° Northeast  Level Estimated
06:59AM -21.7787 -45.3899 32° Northeast  Level Estimated
07:00AM -21.7208 -45.3508 32° Northeast  Level Estimated
07:01AM -21.6629 -45.3119 32° Northeast  Level Estimated
07:02AM -21.6049 -45.2729 32° Northeast  Level Estimated
07:03AM -21.5470 -45.2340 32° Northeast  Level Estimated
07:04AM -21.4891 -45.1951 32° Northeast  Level Estimated
07:05AM -21.4311 -45.1563 32° Northeast  Level Estimated
07:06AM -21.3731 -45.1175 32° Northeast  Level Estimated
07:07AM -21.3152 -45.0787 32° Northeast  Level Estimated
07:08AM -21.2572 -45.0399 32° Northeast  Level Estimated
07:09AM -21.1992 -45.0012 32° Northeast  Level Estimated
07:10AM -21.1412 -44.9625 32° Northeast  Level Estimated
07:11AM -21.0832 -44.9238 32° Northeast  Level Estimated
07:12AM -21.0252 -44.8852 32° Northeast  Level Estimated
07:13AM -20.9672 -44.8466 32° Northeast  Level Estimated
07:14AM -20.9091 -44.8080 32° Northeast  Level Estimated
07:15AM -20.8511 -44.7694 32° Northeast  Level Estimated
07:16AM -20.7931 -44.7309 32° Northeast  Level Estimated
07:17AM -20.7350 -44.6924 32° Northeast  Level Estimated
07:18AM -20.6769 -44.6540 32° Northeast  Level Estimated
07:19AM -20.6189 -44.6155 32° Northeast  Level Estimated
07:20AM -20.5608 -44.5771 32° Northeast  Level Estimated
07:21AM -20.5027 -44.5388 32° Northeast  Level Estimated
07:22AM -20.4446 -44.5004 32° Northeast  Level Estimated
07:23AM -20.3865 -44.4621 32° Northeast  Level Estimated
07:24AM -20.3284 -44.4238 32° Northeast  Level Estimated
07:25AM -20.2702 -44.3856 32° Northeast  Level Estimated
07:26AM -20.2121 -44.3473 32° Northeast  Level Estimated
07:27AM -20.1540 -44.3091 32° Northeast  Level Estimated
07:28AM -20.0958 -44.2710 32° Northeast  Level Estimated
07:29AM -20.0376 -44.2328 32° Northeast  Level Estimated
07:30AM -19.9795 -44.1947 32° Northeast  Level Estimated
07:31AM -19.9213 -44.1566 32° Northeast  Level Estimated
07:32AM -19.8631 -44.1186 32° Northeast  Level Estimated
07:33AM -19.8049 -44.0805 32° Northeast  Level Estimated
07:34AM -19.7467 -44.0425 32° Northeast  Level Estimated
07:35AM -19.6885 -44.0046 32° Northeast  Level Estimated
07:36AM -19.6338 -43.9689 32° Northeast  Level Estimated
07:37AM -19.6338 -43.9689 90° East  Level Estimated
07:38AM -19.6338 -43.9689 90° East  Level Estimated
07:39AM -19.6338 -43.9689 90° East  Level Estimated
07:40AM -19.6338 -43.9689 90° East  Level Estimated
07:41AM -19.6338 -43.9689 90° East  Level Estimated
07:42AM -19.6338 -43.9689 90° East  Level Estimated
07:43AM -19.6338 -43.9689 90° East  Level Estimated
07:44AM -19.6338 -43.9689 90° East  Level Estimated
07:45AM -19.6338 -43.9689 90° East  Level Estimated
07:46AM -19.6338 -43.9689 90° East  Level Estimated
07:47AM -19.6338 -43.9689 90° East  Level Estimated
07:48AM -19.6338 -43.9689 90° East  Level Estimated